sensor_id;sensor_type;location;lat;lon;timestamp;P1;durP1;ratioP1;P2;durP2;ratioP2
78416;SDS011;67715;46.170;6.140;2023-05-07T00:01:11;6.57;;;4.20;;
78416;SDS011;67715;46.170;6.140;2023-05-07T00:03:37;5.23;;;4.23;;
78416;SDS011;67715;46.170;6.140;2023-05-07T00:06:02;6.78;;;4.22;;
78416;SDS011;67715;46.170;6.140;2023-05-07T00:08:28;5.05;;;4.28;;
78416;SDS011;67715;46.170;6.140;2023-05-07T00:10:53;5.28;;;4.28;;
78416;SDS011;67715;46.170;6.140;2023-05-07T00:13:19;7.32;;;4.30;;
78416;SDS011;67715;46.170;6.140;2023-05-07T00:15:44;7.10;;;4.37;;
78416;SDS011;67715;46.170;6.140;2023-05-07T00:18:10;7.30;;;3.97;;
78416;SDS011;67715;46.170;6.140;2023-05-07T00:20:35;9.47;;;4.17;;
78416;SDS011;67715;46.170;6.140;2023-05-07T00:23:00;4.70;;;3.90;;
78416;SDS011;67715;46.170;6.140;2023-05-07T00:25:26;5.10;;;3.97;;
78416;SDS011;67715;46.170;6.140;2023-05-07T00:27:51;4.43;;;4.00;;
78416;SDS011;67715;46.170;6.140;2023-05-07T00:30:17;6.00;;;4.43;;
78416;SDS011;67715;46.170;6.140;2023-05-07T00:32:42;6.90;;;4.80;;
78416;SDS011;67715;46.170;6.140;2023-05-07T00:35:10;6.63;;;4.55;;
78416;SDS011;67715;46.170;6.140;2023-05-07T00:37:35;6.37;;;4.77;;
78416;SDS011;67715;46.170;6.140;2023-05-07T00:40:01;4.95;;;3.97;;
78416;SDS011;67715;46.170;6.140;2023-05-07T00:42:29;7.07;;;4.47;;
78416;SDS011;67715;46.170;6.140;2023-05-07T00:44:54;6.97;;;4.53;;
78416;SDS011;67715;46.170;6.140;2023-05-07T00:47:20;6.10;;;4.57;;
78416;SDS011;67715;46.170;6.140;2023-05-07T00:49:45;5.77;;;4.17;;
78416;SDS011;67715;46.170;6.140;2023-05-07T00:52:11;7.50;;;4.37;;
78416;SDS011;67715;46.170;6.140;2023-05-07T00:54:40;5.03;;;4.30;;
78416;SDS011;67715;46.170;6.140;2023-05-07T00:57:06;5.60;;;4.20;;
78416;SDS011;67715;46.170;6.140;2023-05-07T00:59:31;6.10;;;4.45;;
78416;SDS011;67715;46.170;6.140;2023-05-07T01:01:57;6.95;;;4.80;;
78416;SDS011;67715;46.170;6.140;2023-05-07T01:04:22;6.23;;;4.17;;
78416;SDS011;67715;46.170;6.140;2023-05-07T01:06:49;6.63;;;4.30;;
78416;SDS011;67715;46.170;6.140;2023-05-07T01:09:15;4.43;;;3.88;;
78416;SDS011;67715;46.170;6.140;2023-05-07T01:11:41;5.43;;;4.03;;
78416;SDS011;67715;46.170;6.140;2023-05-07T01:14:07;5.20;;;4.07;;
78416;SDS011;67715;46.170;6.140;2023-05-07T01:16:33;6.13;;;4.57;;
78416;SDS011;67715;46.170;6.140;2023-05-07T01:18:59;7.63;;;4.77;;
78416;SDS011;67715;46.170;6.140;2023-05-07T01:21:25;6.20;;;4.90;;
78416;SDS011;67715;46.170;6.140;2023-05-07T01:23:51;6.80;;;4.78;;
78416;SDS011;67715;46.170;6.140;2023-05-07T01:26:17;5.75;;;4.68;;
78416;SDS011;67715;46.170;6.140;2023-05-07T01:28:44;5.93;;;4.50;;
78416;SDS011;67715;46.170;6.140;2023-05-07T01:31:10;7.55;;;4.95;;
78416;SDS011;67715;46.170;6.140;2023-05-07T01:33:36;6.78;;;4.28;;
78416;SDS011;67715;46.170;6.140;2023-05-07T01:36:03;5.85;;;4.63;;
78416;SDS011;67715;46.170;6.140;2023-05-07T01:38:31;6.28;;;4.65;;
78416;SDS011;67715;46.170;6.140;2023-05-07T01:40:57;6.47;;;4.43;;
78416;SDS011;67715;46.170;6.140;2023-05-07T01:43:22;7.00;;;5.57;;
78416;SDS011;67715;46.170;6.140;2023-05-07T01:45:48;6.88;;;5.18;;
78416;SDS011;67715;46.170;6.140;2023-05-07T01:48:14;5.90;;;4.82;;
78416;SDS011;67715;46.170;6.140;2023-05-07T01:50:40;5.63;;;4.25;;
78416;SDS011;67715;46.170;6.140;2023-05-07T01:53:06;8.77;;;5.03;;
78416;SDS011;67715;46.170;6.140;2023-05-07T01:55:32;4.60;;;3.77;;
78416;SDS011;67715;46.170;6.140;2023-05-07T01:57:57;6.47;;;4.30;;
78416;SDS011;67715;46.170;6.140;2023-05-07T02:00:22;7.80;;;4.47;;
78416;SDS011;67715;46.170;6.140;2023-05-07T02:02:48;6.65;;;4.57;;
78416;SDS011;67715;46.170;6.140;2023-05-07T02:05:13;5.83;;;4.27;;
78416;SDS011;67715;46.170;6.140;2023-05-07T02:07:38;5.57;;;4.60;;
78416;SDS011;67715;46.170;6.140;2023-05-07T02:10:04;5.35;;;4.45;;
78416;SDS011;67715;46.170;6.140;2023-05-07T02:12:30;6.82;;;4.70;;
78416;SDS011;67715;46.170;6.140;2023-05-07T02:14:55;7.10;;;5.73;;
78416;SDS011;67715;46.170;6.140;2023-05-07T02:17:20;5.53;;;4.37;;
78416;SDS011;67715;46.170;6.140;2023-05-07T02:19:46;6.75;;;4.93;;
78416;SDS011;67715;46.170;6.140;2023-05-07T02:22:11;6.47;;;4.47;;
78416;SDS011;67715;46.170;6.140;2023-05-07T02:24:36;6.27;;;4.90;;
78416;SDS011;67715;46.170;6.140;2023-05-07T02:27:01;5.27;;;4.23;;
78416;SDS011;67715;46.170;6.140;2023-05-07T02:29:28;5.05;;;4.55;;
78416;SDS011;67715;46.170;6.140;2023-05-07T02:31:53;6.82;;;4.03;;
78416;SDS011;67715;46.170;6.140;2023-05-07T02:34:19;7.50;;;4.60;;
78416;SDS011;67715;46.170;6.140;2023-05-07T02:36:44;5.22;;;4.40;;
78416;SDS011;67715;46.170;6.140;2023-05-07T02:39:10;7.05;;;4.28;;
78416;SDS011;67715;46.170;6.140;2023-05-07T02:41:36;5.50;;;4.47;;
78416;SDS011;67715;46.170;6.140;2023-05-07T02:44:02;6.60;;;4.90;;
78416;SDS011;67715;46.170;6.140;2023-05-07T02:46:27;5.90;;;4.43;;
78416;SDS011;67715;46.170;6.140;2023-05-07T02:48:52;7.37;;;4.60;;
78416;SDS011;67715;46.170;6.140;2023-05-07T02:51:19;5.67;;;4.53;;
78416;SDS011;67715;46.170;6.140;2023-05-07T02:53:46;4.95;;;4.45;;
78416;SDS011;67715;46.170;6.140;2023-05-07T02:56:11;8.30;;;5.10;;
78416;SDS011;67715;46.170;6.140;2023-05-07T02:58:36;5.33;;;4.20;;
78416;SDS011;67715;46.170;6.140;2023-05-07T03:01:04;7.05;;;4.32;;
78416;SDS011;67715;46.170;6.140;2023-05-07T03:03:29;5.28;;;3.90;;
78416;SDS011;67715;46.170;6.140;2023-05-07T03:05:55;4.80;;;3.20;;
78416;SDS011;67715;46.170;6.140;2023-05-07T03:08:20;3.50;;;2.63;;
78416;SDS011;67715;46.170;6.140;2023-05-07T03:10:46;3.07;;;1.97;;
78416;SDS011;67715;46.170;6.140;2023-05-07T03:13:11;3.40;;;3.00;;
78416;SDS011;67715;46.170;6.140;2023-05-07T03:15:37;4.50;;;2.13;;
78416;SDS011;67715;46.170;6.140;2023-05-07T03:18:02;3.73;;;1.80;;
78416;SDS011;67715;46.170;6.140;2023-05-07T03:20:27;3.93;;;2.40;;
78416;SDS011;67715;46.170;6.140;2023-05-07T03:22:52;4.87;;;2.20;;
78416;SDS011;67715;46.170;6.140;2023-05-07T03:25:18;2.90;;;1.50;;
78416;SDS011;67715;46.170;6.140;2023-05-07T03:27:43;3.87;;;1.70;;
78416;SDS011;67715;46.170;6.140;2023-05-07T03:30:09;4.47;;;1.87;;
78416;SDS011;67715;46.170;6.140;2023-05-07T03:32:35;3.08;;;1.60;;
78416;SDS011;67715;46.170;6.140;2023-05-07T03:35:00;4.25;;;2.03;;
78416;SDS011;67715;46.170;6.140;2023-05-07T03:37:26;3.25;;;2.05;;
78416;SDS011;67715;46.170;6.140;2023-05-07T03:39:51;4.20;;;2.07;;
78416;SDS011;67715;46.170;6.140;2023-05-07T03:42:17;2.70;;;1.73;;
78416;SDS011;67715;46.170;6.140;2023-05-07T03:44:42;5.35;;;2.33;;
78416;SDS011;67715;46.170;6.140;2023-05-07T03:47:07;3.23;;;1.90;;
78416;SDS011;67715;46.170;6.140;2023-05-07T03:49:32;3.73;;;2.30;;
78416;SDS011;67715;46.170;6.140;2023-05-07T03:51:58;3.13;;;2.03;;
78416;SDS011;67715;46.170;6.140;2023-05-07T03:54:23;2.97;;;2.10;;
78416;SDS011;67715;46.170;6.140;2023-05-07T03:56:48;2.53;;;1.80;;
78416;SDS011;67715;46.170;6.140;2023-05-07T03:59:14;3.58;;;1.70;;
78416;SDS011;67715;46.170;6.140;2023-05-07T04:01:39;2.40;;;1.70;;
78416;SDS011;67715;46.170;6.140;2023-05-07T04:04:05;4.75;;;2.00;;
78416;SDS011;67715;46.170;6.140;2023-05-07T04:06:30;2.97;;;2.05;;
78416;SDS011;67715;46.170;6.140;2023-05-07T04:08:56;2.67;;;1.67;;
78416;SDS011;67715;46.170;6.140;2023-05-07T04:11:21;4.95;;;2.03;;
78416;SDS011;67715;46.170;6.140;2023-05-07T04:13:46;4.45;;;1.65;;
78416;SDS011;67715;46.170;6.140;2023-05-07T04:16:12;4.50;;;2.10;;
78416;SDS011;67715;46.170;6.140;2023-05-07T04:18:37;5.57;;;2.20;;
78416;SDS011;67715;46.170;6.140;2023-05-07T04:21:03;3.80;;;1.90;;
78416;SDS011;67715;46.170;6.140;2023-05-07T04:23:28;3.75;;;2.08;;
78416;SDS011;67715;46.170;6.140;2023-05-07T04:25:54;3.67;;;1.80;;
78416;SDS011;67715;46.170;6.140;2023-05-07T04:28:19;3.33;;;2.03;;
78416;SDS011;67715;46.170;6.140;2023-05-07T04:30:45;2.65;;;1.88;;
78416;SDS011;67715;46.170;6.140;2023-05-07T04:33:10;2.45;;;1.73;;
78416;SDS011;67715;46.170;6.140;2023-05-07T04:35:36;4.55;;;2.30;;
78416;SDS011;67715;46.170;6.140;2023-05-07T04:38:02;4.00;;;2.17;;
78416;SDS011;67715;46.170;6.140;2023-05-07T04:40:27;2.50;;;2.10;;
78416;SDS011;67715;46.170;6.140;2023-05-07T04:42:52;3.20;;;2.10;;
78416;SDS011;67715;46.170;6.140;2023-05-07T04:45:18;2.80;;;2.00;;
78416;SDS011;67715;46.170;6.140;2023-05-07T04:47:43;5.85;;;2.30;;
78416;SDS011;67715;46.170;6.140;2023-05-07T04:50:09;3.10;;;1.90;;
78416;SDS011;67715;46.170;6.140;2023-05-07T04:52:34;3.88;;;2.13;;
78416;SDS011;67715;46.170;6.140;2023-05-07T04:55:00;2.23;;;1.90;;
78416;SDS011;67715;46.170;6.140;2023-05-07T04:57:25;8.65;;;2.60;;
78416;SDS011;67715;46.170;6.140;2023-05-07T04:59:51;2.30;;;2.05;;
78416;SDS011;67715;46.170;6.140;2023-05-07T05:02:16;3.58;;;2.13;;
78416;SDS011;67715;46.170;6.140;2023-05-07T05:04:42;3.40;;;1.83;;
78416;SDS011;67715;46.170;6.140;2023-05-07T05:07:07;3.20;;;2.20;;
78416;SDS011;67715;46.170;6.140;2023-05-07T05:09:32;3.30;;;2.50;;
78416;SDS011;67715;46.170;6.140;2023-05-07T05:11:58;3.85;;;2.08;;
78416;SDS011;67715;46.170;6.140;2023-05-07T05:14:24;4.30;;;2.38;;
78416;SDS011;67715;46.170;6.140;2023-05-07T05:16:49;3.63;;;2.43;;
78416;SDS011;67715;46.170;6.140;2023-05-07T05:19:14;2.67;;;2.07;;
78416;SDS011;67715;46.170;6.140;2023-05-07T05:21:40;3.38;;;2.35;;
78416;SDS011;67715;46.170;6.140;2023-05-07T05:24:05;3.95;;;2.22;;
78416;SDS011;67715;46.170;6.140;2023-05-07T05:26:31;2.80;;;2.33;;
78416;SDS011;67715;46.170;6.140;2023-05-07T05:28:56;3.33;;;1.77;;
78416;SDS011;67715;46.170;6.140;2023-05-07T05:31:21;3.00;;;2.10;;
78416;SDS011;67715;46.170;6.140;2023-05-07T05:33:47;4.18;;;2.75;;
78416;SDS011;67715;46.170;6.140;2023-05-07T05:36:12;7.80;;;2.77;;
78416;SDS011;67715;46.170;6.140;2023-05-07T05:38:38;7.75;;;2.85;;
78416;SDS011;67715;46.170;6.140;2023-05-07T05:41:04;3.92;;;2.10;;
78416;SDS011;67715;46.170;6.140;2023-05-07T05:43:29;8.02;;;2.70;;
78416;SDS011;67715;46.170;6.140;2023-05-07T05:45:55;4.82;;;3.10;;
78416;SDS011;67715;46.170;6.140;2023-05-07T05:48:20;3.35;;;2.20;;
78416;SDS011;67715;46.170;6.140;2023-05-07T05:50:46;5.10;;;2.43;;
78416;SDS011;67715;46.170;6.140;2023-05-07T05:53:11;4.27;;;2.10;;
78416;SDS011;67715;46.170;6.140;2023-05-07T05:55:36;3.00;;;2.27;;
78416;SDS011;67715;46.170;6.140;2023-05-07T05:58:02;4.40;;;2.67;;
78416;SDS011;67715;46.170;6.140;2023-05-07T06:00:28;4.20;;;2.17;;
78416;SDS011;67715;46.170;6.140;2023-05-07T06:02:53;3.13;;;2.00;;
78416;SDS011;67715;46.170;6.140;2023-05-07T06:05:19;4.67;;;1.90;;
78416;SDS011;67715;46.170;6.140;2023-05-07T06:07:44;2.70;;;2.10;;
78416;SDS011;67715;46.170;6.140;2023-05-07T06:10:09;4.10;;;2.40;;
78416;SDS011;67715;46.170;6.140;2023-05-07T06:12:35;4.57;;;2.80;;
78416;SDS011;67715;46.170;6.140;2023-05-07T06:15:00;2.87;;;1.97;;
78416;SDS011;67715;46.170;6.140;2023-05-07T06:17:26;4.38;;;2.53;;
78416;SDS011;67715;46.170;6.140;2023-05-07T06:19:51;3.55;;;2.50;;
78416;SDS011;67715;46.170;6.140;2023-05-07T06:22:17;3.90;;;2.58;;
78416;SDS011;67715;46.170;6.140;2023-05-07T06:24:42;3.77;;;2.43;;
78416;SDS011;67715;46.170;6.140;2023-05-07T06:27:08;3.10;;;2.13;;
78416;SDS011;67715;46.170;6.140;2023-05-07T06:29:33;5.90;;;2.63;;
78416;SDS011;67715;46.170;6.140;2023-05-07T06:32:08;2.90;;;2.15;;
78416;SDS011;67715;46.170;6.140;2023-05-07T06:34:34;3.95;;;2.28;;
78416;SDS011;67715;46.170;6.140;2023-05-07T06:37:00;5.85;;;2.60;;
78416;SDS011;67715;46.170;6.140;2023-05-07T06:39:26;4.72;;;2.28;;
78416;SDS011;67715;46.170;6.140;2023-05-07T06:41:51;4.23;;;2.30;;
78416;SDS011;67715;46.170;6.140;2023-05-07T06:44:16;3.33;;;2.13;;
78416;SDS011;67715;46.170;6.140;2023-05-07T06:46:42;3.77;;;2.23;;
78416;SDS011;67715;46.170;6.140;2023-05-07T06:49:07;5.13;;;2.03;;
78416;SDS011;67715;46.170;6.140;2023-05-07T06:51:32;3.40;;;2.00;;
78416;SDS011;67715;46.170;6.140;2023-05-07T06:53:58;5.00;;;2.30;;
78416;SDS011;67715;46.170;6.140;2023-05-07T06:56:23;4.23;;;2.00;;
78416;SDS011;67715;46.170;6.140;2023-05-07T06:58:49;3.38;;;2.15;;
78416;SDS011;67715;46.170;6.140;2023-05-07T07:01:14;3.90;;;2.10;;
78416;SDS011;67715;46.170;6.140;2023-05-07T07:03:40;2.97;;;2.08;;
78416;SDS011;67715;46.170;6.140;2023-05-07T07:06:05;1.93;;;1.73;;
78416;SDS011;67715;46.170;6.140;2023-05-07T07:08:30;4.00;;;2.40;;
78416;SDS011;67715;46.170;6.140;2023-05-07T07:10:56;3.07;;;2.10;;
78416;SDS011;67715;46.170;6.140;2023-05-07T07:13:21;4.43;;;2.37;;
78416;SDS011;67715;46.170;6.140;2023-05-07T07:15:46;4.83;;;2.63;;
78416;SDS011;67715;46.170;6.140;2023-05-07T07:18:12;5.60;;;2.22;;
78416;SDS011;67715;46.170;6.140;2023-05-07T07:20:37;3.80;;;1.90;;
78416;SDS011;67715;46.170;6.140;2023-05-07T07:23:02;2.97;;;2.10;;
78416;SDS011;67715;46.170;6.140;2023-05-07T07:25:28;8.38;;;2.42;;
78416;SDS011;67715;46.170;6.140;2023-05-07T07:27:53;4.83;;;2.60;;
78416;SDS011;67715;46.170;6.140;2023-05-07T07:30:18;2.93;;;1.70;;
78416;SDS011;67715;46.170;6.140;2023-05-07T07:32:43;3.87;;;2.60;;
78416;SDS011;67715;46.170;6.140;2023-05-07T07:35:09;4.68;;;1.92;;
78416;SDS011;67715;46.170;6.140;2023-05-07T07:37:34;4.07;;;2.03;;
78416;SDS011;67715;46.170;6.140;2023-05-07T07:40:00;4.13;;;2.15;;
78416;SDS011;67715;46.170;6.140;2023-05-07T07:42:25;3.67;;;2.10;;
78416;SDS011;67715;46.170;6.140;2023-05-07T07:44:51;3.10;;;2.00;;
78416;SDS011;67715;46.170;6.140;2023-05-07T07:47:16;3.15;;;2.00;;
78416;SDS011;67715;46.170;6.140;2023-05-07T07:49:42;5.53;;;2.37;;
78416;SDS011;67715;46.170;6.140;2023-05-07T07:52:07;2.75;;;2.13;;
78416;SDS011;67715;46.170;6.140;2023-05-07T07:54:32;3.23;;;2.17;;
78416;SDS011;67715;46.170;6.140;2023-05-07T07:56:58;3.10;;;2.00;;
78416;SDS011;67715;46.170;6.140;2023-05-07T07:59:23;4.33;;;2.07;;
78416;SDS011;67715;46.170;6.140;2023-05-07T08:01:48;4.90;;;2.30;;
78416;SDS011;67715;46.170;6.140;2023-05-07T08:04:15;3.75;;;2.35;;
78416;SDS011;67715;46.170;6.140;2023-05-07T08:06:40;5.35;;;1.88;;
78416;SDS011;67715;46.170;6.140;2023-05-07T08:09:06;3.63;;;2.10;;
78416;SDS011;67715;46.170;6.140;2023-05-07T08:11:31;2.93;;;1.93;;
78416;SDS011;67715;46.170;6.140;2023-05-07T08:13:56;3.30;;;2.07;;
78416;SDS011;67715;46.170;6.140;2023-05-07T08:16:22;7.50;;;2.50;;
78416;SDS011;67715;46.170;6.140;2023-05-07T08:18:47;3.08;;;2.10;;
78416;SDS011;67715;46.170;6.140;2023-05-07T08:21:12;2.97;;;2.13;;
78416;SDS011;67715;46.170;6.140;2023-05-07T08:23:38;5.80;;;2.37;;
78416;SDS011;67715;46.170;6.140;2023-05-07T08:26:03;3.00;;;2.00;;
78416;SDS011;67715;46.170;6.140;2023-05-07T08:28:28;2.80;;;2.13;;
78416;SDS011;67715;46.170;6.140;2023-05-07T08:30:54;3.93;;;2.40;;
78416;SDS011;67715;46.170;6.140;2023-05-07T08:33:21;3.03;;;2.20;;
78416;SDS011;67715;46.170;6.140;2023-05-07T08:35:46;3.47;;;2.38;;
78416;SDS011;67715;46.170;6.140;2023-05-07T08:38:12;4.20;;;2.27;;
78416;SDS011;67715;46.170;6.140;2023-05-07T08:40:37;5.57;;;2.20;;
78416;SDS011;67715;46.170;6.140;2023-05-07T08:43:07;4.28;;;2.80;;
78416;SDS011;67715;46.170;6.140;2023-05-07T08:45:33;3.78;;;2.40;;
78416;SDS011;67715;46.170;6.140;2023-05-07T08:47:59;2.83;;;2.20;;
78416;SDS011;67715;46.170;6.140;2023-05-07T08:50:27;3.10;;;2.20;;
78416;SDS011;67715;46.170;6.140;2023-05-07T08:52:53;3.80;;;2.47;;
78416;SDS011;67715;46.170;6.140;2023-05-07T08:55:18;4.13;;;2.30;;
78416;SDS011;67715;46.170;6.140;2023-05-07T08:57:45;2.10;;;1.77;;
78416;SDS011;67715;46.170;6.140;2023-05-07T09:00:10;3.80;;;1.73;;
78416;SDS011;67715;46.170;6.140;2023-05-07T09:02:36;2.78;;;1.70;;
78416;SDS011;67715;46.170;6.140;2023-05-07T09:05:02;5.22;;;2.17;;
78416;SDS011;67715;46.170;6.140;2023-05-07T09:07:27;5.72;;;2.00;;
78416;SDS011;67715;46.170;6.140;2023-05-07T09:09:53;2.63;;;1.53;;
78416;SDS011;67715;46.170;6.140;2023-05-07T09:12:20;3.30;;;2.00;;
78416;SDS011;67715;46.170;6.140;2023-05-07T09:14:46;3.70;;;2.15;;
78416;SDS011;67715;46.170;6.140;2023-05-07T09:17:12;4.45;;;2.13;;
78416;SDS011;67715;46.170;6.140;2023-05-07T09:19:37;3.63;;;1.75;;
78416;SDS011;67715;46.170;6.140;2023-05-07T09:22:03;3.20;;;1.60;;
78416;SDS011;67715;46.170;6.140;2023-05-07T09:24:29;1.80;;;1.50;;
78416;SDS011;67715;46.170;6.140;2023-05-07T09:26:59;2.35;;;1.60;;
78416;SDS011;67715;46.170;6.140;2023-05-07T09:29:25;3.05;;;1.80;;
78416;SDS011;67715;46.170;6.140;2023-05-07T09:31:50;2.85;;;1.60;;
78416;SDS011;67715;46.170;6.140;2023-05-07T09:34:15;2.57;;;1.53;;
78416;SDS011;67715;46.170;6.140;2023-05-07T09:36:41;3.80;;;2.00;;
78416;SDS011;67715;46.170;6.140;2023-05-07T09:39:06;2.22;;;1.63;;
78416;SDS011;67715;46.170;6.140;2023-05-07T09:41:32;3.10;;;1.95;;
78416;SDS011;67715;46.170;6.140;2023-05-07T09:43:57;4.10;;;1.83;;
78416;SDS011;67715;46.170;6.140;2023-05-07T09:46:25;2.30;;;1.80;;
78416;SDS011;67715;46.170;6.140;2023-05-07T09:48:50;2.30;;;1.70;;
78416;SDS011;67715;46.170;6.140;2023-05-07T09:51:22;4.57;;;2.33;;
78416;SDS011;67715;46.170;6.140;2023-05-07T09:53:52;2.25;;;1.73;;
78416;SDS011;67715;46.170;6.140;2023-05-07T09:56:18;3.13;;;2.20;;
78416;SDS011;67715;46.170;6.140;2023-05-07T09:58:43;2.20;;;1.50;;
78416;SDS011;67715;46.170;6.140;2023-05-07T10:01:10;2.58;;;1.70;;
78416;SDS011;67715;46.170;6.140;2023-05-07T10:03:36;2.00;;;1.40;;
78416;SDS011;67715;46.170;6.140;2023-05-07T10:06:05;2.58;;;1.50;;
78416;SDS011;67715;46.170;6.140;2023-05-07T10:08:30;2.15;;;1.48;;
78416;SDS011;67715;46.170;6.140;2023-05-07T10:10:56;2.80;;;1.50;;
78416;SDS011;67715;46.170;6.140;2023-05-07T10:13:21;2.90;;;1.50;;
78416;SDS011;67715;46.170;6.140;2023-05-07T10:15:47;2.20;;;1.58;;
78416;SDS011;67715;46.170;6.140;2023-05-07T10:18:12;2.35;;;1.70;;
78416;SDS011;67715;46.170;6.140;2023-05-07T10:20:38;1.83;;;1.45;;
78416;SDS011;67715;46.170;6.140;2023-05-07T10:23:04;2.65;;;1.48;;
78416;SDS011;67715;46.170;6.140;2023-05-07T10:25:31;2.25;;;1.50;;
78416;SDS011;67715;46.170;6.140;2023-05-07T10:27:57;2.03;;;1.30;;
78416;SDS011;67715;46.170;6.140;2023-05-07T10:33:20;3.90;;;1.20;;
78416;SDS011;67715;46.170;6.140;2023-05-07T10:35:48;1.75;;;1.15;;
78416;SDS011;67715;46.170;6.140;2023-05-07T10:38:13;2.58;;;1.30;;
78416;SDS011;67715;46.170;6.140;2023-05-07T10:40:39;4.97;;;1.30;;
78416;SDS011;67715;46.170;6.140;2023-05-07T10:43:05;3.38;;;1.58;;
78416;SDS011;67715;46.170;6.140;2023-05-07T10:45:31;1.95;;;1.20;;
78416;SDS011;67715;46.170;6.140;2023-05-07T10:48:11;1.30;;;1.00;;
78416;SDS011;67715;46.170;6.140;2023-05-07T10:50:38;5.15;;;2.70;;
78416;SDS011;67715;46.170;6.140;2023-05-07T10:53:38;1.15;;;0.90;;
78416;SDS011;67715;46.170;6.140;2023-05-07T10:56:23;4.25;;;1.40;;
78416;SDS011;67715;46.170;6.140;2023-05-07T10:58:41;2.38;;;1.17;;
78416;SDS011;67715;46.170;6.140;2023-05-07T11:01:07;1.10;;;0.90;;
78416;SDS011;67715;46.170;6.140;2023-05-07T11:03:32;1.40;;;1.10;;
78416;SDS011;67715;46.170;6.140;2023-05-07T11:06:14;1.03;;;0.90;;
78416;SDS011;67715;46.170;6.140;2023-05-07T11:08:56;1.52;;;1.00;;
78416;SDS011;67715;46.170;6.140;2023-05-07T11:14:09;3.75;;;1.05;;
78416;SDS011;67715;46.170;6.140;2023-05-07T11:16:34;3.17;;;1.10;;
78416;SDS011;67715;46.170;6.140;2023-05-07T11:19:01;3.72;;;1.13;;
78416;SDS011;67715;46.170;6.140;2023-05-07T11:21:33;3.35;;;1.05;;
78416;SDS011;67715;46.170;6.140;2023-05-07T11:24:01;1.70;;;0.88;;
78416;SDS011;67715;46.170;6.140;2023-05-07T11:26:27;2.25;;;1.15;;
78416;SDS011;67715;46.170;6.140;2023-05-07T11:28:54;1.80;;;0.90;;
78416;SDS011;67715;46.170;6.140;2023-05-07T11:31:23;1.20;;;0.80;;
78416;SDS011;67715;46.170;6.140;2023-05-07T11:33:51;3.30;;;1.63;;
78416;SDS011;67715;46.170;6.140;2023-05-07T11:36:17;4.60;;;2.03;;
78416;SDS011;67715;46.170;6.140;2023-05-07T11:38:43;3.03;;;1.10;;
78416;SDS011;67715;46.170;6.140;2023-05-07T11:41:08;2.97;;;1.10;;
78416;SDS011;67715;46.170;6.140;2023-05-07T11:43:34;1.70;;;1.13;;
78416;SDS011;67715;46.170;6.140;2023-05-07T11:46:10;1.85;;;1.20;;
78416;SDS011;67715;46.170;6.140;2023-05-07T11:48:36;1.92;;;1.20;;
78416;SDS011;67715;46.170;6.140;2023-05-07T11:51:02;5.00;;;1.48;;
78416;SDS011;67715;46.170;6.140;2023-05-07T11:53:35;1.23;;;1.00;;
78416;SDS011;67715;46.170;6.140;2023-05-07T11:56:05;1.85;;;1.20;;
78416;SDS011;67715;46.170;6.140;2023-05-07T11:58:31;1.90;;;0.90;;
78416;SDS011;67715;46.170;6.140;2023-05-07T12:00:57;1.47;;;1.07;;
78416;SDS011;67715;46.170;6.140;2023-05-07T12:03:22;1.57;;;1.10;;
78416;SDS011;67715;46.170;6.140;2023-05-07T12:05:47;1.93;;;1.10;;
78416;SDS011;67715;46.170;6.140;2023-05-07T12:08:22;2.17;;;1.23;;
78416;SDS011;67715;46.170;6.140;2023-05-07T12:10:48;3.92;;;0.90;;
78416;SDS011;67715;46.170;6.140;2023-05-07T12:13:15;1.75;;;0.88;;
78416;SDS011;67715;46.170;6.140;2023-05-07T12:15:41;1.40;;;1.00;;
78416;SDS011;67715;46.170;6.140;2023-05-07T12:18:07;2.38;;;0.80;;
78416;SDS011;67715;46.170;6.140;2023-05-07T12:20:33;4.05;;;1.25;;
78416;SDS011;67715;46.170;6.140;2023-05-07T12:22:59;1.80;;;0.70;;
78416;SDS011;67715;46.170;6.140;2023-05-07T12:25:26;2.00;;;0.98;;
78416;SDS011;67715;46.170;6.140;2023-05-07T12:27:52;1.40;;;0.90;;
78416;SDS011;67715;46.170;6.140;2023-05-07T12:30:17;1.58;;;1.00;;
78416;SDS011;67715;46.170;6.140;2023-05-07T12:32:44;6.40;;;1.10;;
78416;SDS011;67715;46.170;6.140;2023-05-07T12:35:10;1.90;;;1.20;;
78416;SDS011;67715;46.170;6.140;2023-05-07T12:37:35;1.50;;;1.08;;
78416;SDS011;67715;46.170;6.140;2023-05-07T12:40:08;4.55;;;1.25;;
78416;SDS011;67715;46.170;6.140;2023-05-07T12:42:38;2.47;;;1.27;;
78416;SDS011;67715;46.170;6.140;2023-05-07T12:45:15;1.55;;;1.20;;
78416;SDS011;67715;46.170;6.140;2023-05-07T12:47:44;3.40;;;1.33;;
78416;SDS011;67715;46.170;6.140;2023-05-07T12:50:10;2.42;;;1.27;;
78416;SDS011;67715;46.170;6.140;2023-05-07T12:52:36;6.97;;;1.80;;
78416;SDS011;67715;46.170;6.140;2023-05-07T12:55:05;2.60;;;1.30;;
78416;SDS011;67715;46.170;6.140;2023-05-07T12:57:37;2.00;;;1.42;;
78416;SDS011;67715;46.170;6.140;2023-05-07T13:00:03;1.90;;;1.00;;
78416;SDS011;67715;46.170;6.140;2023-05-07T13:02:32;2.35;;;1.13;;
78416;SDS011;67715;46.170;6.140;2023-05-07T13:04:59;1.60;;;1.25;;
78416;SDS011;67715;46.170;6.140;2023-05-07T13:07:24;1.50;;;1.10;;
78416;SDS011;67715;46.170;6.140;2023-05-07T13:09:50;1.25;;;1.10;;
78416;SDS011;67715;46.170;6.140;2023-05-07T13:12:15;1.97;;;1.17;;
78416;SDS011;67715;46.170;6.140;2023-05-07T13:14:41;5.30;;;1.40;;
78416;SDS011;67715;46.170;6.140;2023-05-07T13:17:06;1.60;;;1.00;;
78416;SDS011;67715;46.170;6.140;2023-05-07T13:19:31;1.77;;;0.93;;
78416;SDS011;67715;46.170;6.140;2023-05-07T13:21:56;3.10;;;1.23;;
78416;SDS011;67715;46.170;6.140;2023-05-07T13:24:22;1.87;;;1.20;;
78416;SDS011;67715;46.170;6.140;2023-05-07T13:26:47;2.23;;;1.10;;
78416;SDS011;67715;46.170;6.140;2023-05-07T13:29:12;2.90;;;1.20;;
78416;SDS011;67715;46.170;6.140;2023-05-07T13:31:38;1.87;;;1.07;;
78416;SDS011;67715;46.170;6.140;2023-05-07T13:34:07;5.72;;;1.30;;
78416;SDS011;67715;46.170;6.140;2023-05-07T13:36:33;1.90;;;1.20;;
78416;SDS011;67715;46.170;6.140;2023-05-07T13:39:02;1.83;;;1.25;;
78416;SDS011;67715;46.170;6.140;2023-05-07T13:41:27;1.38;;;1.02;;
78416;SDS011;67715;46.170;6.140;2023-05-07T13:43:53;1.90;;;1.30;;
78416;SDS011;67715;46.170;6.140;2023-05-07T13:46:18;1.47;;;1.17;;
78416;SDS011;67715;46.170;6.140;2023-05-07T13:48:43;2.73;;;1.10;;
78416;SDS011;67715;46.170;6.140;2023-05-07T13:51:09;3.40;;;1.45;;
78416;SDS011;67715;46.170;6.140;2023-05-07T13:53:34;5.33;;;1.20;;
78416;SDS011;67715;46.170;6.140;2023-05-07T13:56:00;3.03;;;1.13;;
78416;SDS011;67715;46.170;6.140;2023-05-07T13:58:26;2.47;;;0.98;;
78416;SDS011;67715;46.170;6.140;2023-05-07T14:00:51;1.50;;;1.23;;
78416;SDS011;67715;46.170;6.140;2023-05-07T14:03:17;1.43;;;1.27;;
78416;SDS011;67715;46.170;6.140;2023-05-07T14:05:44;2.45;;;1.30;;
78416;SDS011;67715;46.170;6.140;2023-05-07T14:08:09;1.87;;;1.20;;
78416;SDS011;67715;46.170;6.140;2023-05-07T14:10:35;1.38;;;1.10;;
78416;SDS011;67715;46.170;6.140;2023-05-07T14:13:01;1.80;;;1.10;;
78416;SDS011;67715;46.170;6.140;2023-05-07T14:15:26;1.67;;;1.45;;
78416;SDS011;67715;46.170;6.140;2023-05-07T14:17:51;3.07;;;1.50;;
78416;SDS011;67715;46.170;6.140;2023-05-07T14:20:17;1.50;;;1.20;;
78416;SDS011;67715;46.170;6.140;2023-05-07T14:22:42;1.50;;;1.15;;
78416;SDS011;67715;46.170;6.140;2023-05-07T14:25:08;2.80;;;1.73;;
78416;SDS011;67715;46.170;6.140;2023-05-07T14:27:34;2.33;;;1.30;;
78416;SDS011;67715;46.170;6.140;2023-05-07T14:30:00;3.10;;;1.20;;
78416;SDS011;67715;46.170;6.140;2023-05-07T14:32:25;2.28;;;1.10;;
78416;SDS011;67715;46.170;6.140;2023-05-07T14:34:50;2.30;;;1.20;;
78416;SDS011;67715;46.170;6.140;2023-05-07T14:37:16;1.93;;;0.80;;
78416;SDS011;67715;46.170;6.140;2023-05-07T14:39:41;0.80;;;0.70;;
78416;SDS011;67715;46.170;6.140;2023-05-07T14:42:06;1.83;;;0.80;;
78416;SDS011;67715;46.170;6.140;2023-05-07T14:44:33;2.30;;;2.10;;
78416;SDS011;67715;46.170;6.140;2023-05-07T14:46:59;1.75;;;1.13;;